createdAt,value
2019-06-26T00:00:45.931Z,100601.02
2019-06-26T00:03:15.590Z,100606.09
2019-06-26T00:05:45.440Z,100609.72
2019-06-26T00:08:17.260Z,100607.39
2019-06-26T00:10:46.561Z,100605.77
2019-06-26T00:13:25.647Z,100606.84
2019-06-26T00:15:47.585Z,100603.30
2019-06-26T00:18:17.178Z,100600.16
2019-06-26T00:20:49.670Z,100609.75
2019-06-26T00:23:19.337Z,100603.48
2019-06-26T00:25:50.225Z,100601.02
2019-06-26T00:28:21.298Z,100602.50
2019-06-26T00:30:50.893Z,100597.00
2019-06-26T00:33:20.594Z,100600.66
2019-06-26T00:35:50.209Z,100606.95
2019-06-26T00:38:19.813Z,100601.48
2019-06-26T00:40:50.883Z,100599.10
2019-06-26T00:43:20.605Z,100603.41
2019-06-26T00:45:50.208Z,100603.13
2019-06-26T00:48:19.806Z,100600.25
2019-06-26T00:50:49.478Z,100607.43
2019-06-26T00:53:19.066Z,100599.65
2019-06-26T00:55:48.671Z,100602.51
2019-06-26T00:58:18.259Z,100605.28
2019-06-26T01:00:52.614Z,100608.02
2019-06-26T01:03:22.215Z,100609.71
2019-06-26T01:05:51.828Z,100605.72
2019-06-26T01:08:21.418Z,100600.25
2019-06-26T01:10:51.007Z,100601.60
2019-06-26T01:13:20.632Z,100601.86
2019-06-26T01:15:50.281Z,100597.27
2019-06-26T01:18:19.889Z,100605.42
2019-06-26T01:20:49.504Z,100593.50
2019-06-26T01:23:19.158Z,100598.73
2019-06-26T01:25:48.830Z,100597.58
2019-06-26T01:28:18.496Z,100595.34
2019-06-26T01:30:48.166Z,100597.97
2019-06-26T01:33:17.807Z,100593.05
2019-06-26T01:35:47.410Z,100595.95
2019-06-26T01:38:16.999Z,100590.66
2019-06-26T01:40:46.673Z,100593.05
2019-06-26T01:43:16.365Z,100595.81
2019-06-26T01:45:45.982Z,100600.66
2019-06-26T01:48:15.834Z,100590.44
2019-06-26T01:50:45.442Z,100590.90
2019-06-26T01:53:15.018Z,100586.63
2019-06-26T01:55:44.817Z,100591.86
2019-06-26T01:58:14.457Z,100592.42
2019-06-26T02:00:44.243Z,100585.78
2019-06-26T02:03:13.855Z,100590.05
2019-06-26T02:05:43.579Z,100587.69
2019-06-26T02:08:13.274Z,100586.72
2019-06-26T02:10:43.736Z,100590.73
2019-06-26T02:13:13.334Z,100591.42
2019-06-26T02:15:44.533Z,100588.69
2019-06-26T02:18:22.505Z,100591.83
2019-06-26T02:20:53.365Z,100589.13
2019-06-26T02:23:22.966Z,100593.92
2019-06-26T02:25:52.561Z,100589.45
2019-06-26T02:28:22.154Z,100590.16
2019-06-26T02:30:51.786Z,100592.59
2019-06-26T02:33:21.364Z,100587.45
2019-06-26T02:35:50.974Z,100596.83
2019-06-26T02:38:20.585Z,100593.15
2019-06-26T02:40:51.485Z,100599.48
2019-06-26T02:43:21.035Z,100604.92
2019-06-26T02:45:50.700Z,100607.41
2019-06-26T02:48:20.381Z,100603.95
2019-06-26T02:50:50.298Z,100599.16
2019-06-26T02:53:19.901Z,100600.92
2019-06-26T02:55:49.511Z,100610.88
2019-06-26T02:58:19.101Z,100611.39
2019-06-26T03:00:48.704Z,100615.17
2019-06-26T03:03:18.506Z,100621.45
2019-06-26T03:05:48.086Z,100624.69
2019-06-26T03:08:17.751Z,100625.95
2019-06-26T03:10:47.340Z,100627.16
2019-06-26T03:13:16.950Z,100628.06
2019-06-26T03:15:50.203Z,100630.23
2019-06-26T03:18:17.839Z,100627.58
2019-06-26T03:20:50.335Z,100626.38
2019-06-26T03:23:19.959Z,100629.67
2019-06-26T03:25:52.319Z,100636.62
2019-06-26T03:28:21.919Z,100633.25
2019-06-26T03:30:51.511Z,100646.81
2019-06-26T03:33:21.105Z,100650.24
2019-06-26T03:35:50.803Z,100649.03
2019-06-26T03:38:20.341Z,100655.20
2019-06-26T03:40:50.026Z,100648.41
2019-06-26T03:43:19.610Z,100655.47
2019-06-26T03:45:49.233Z,100659.80
2019-06-26T03:48:18.872Z,100658.45
2019-06-26T03:50:48.472Z,100659.84
2019-06-26T03:53:18.072Z,100657.82
2019-06-26T03:55:47.663Z,100662.32
2019-06-26T03:58:17.272Z,100659.36
2019-06-26T04:00:47.180Z,100660.11
2019-06-26T04:03:16.718Z,100656.23
2019-06-26T04:05:46.397Z,100654.20
2019-06-26T04:08:15.989Z,100658.36
2019-06-26T04:10:45.581Z,100650.30
2019-06-26T04:13:15.194Z,100659.67
2019-06-26T04:15:45.796Z,100655.73
2019-06-26T04:18:15.545Z,100659.41
2019-06-26T04:20:45.142Z,100662.09
2019-06-26T04:23:14.745Z,100666.23
2019-06-26T04:25:44.469Z,100674.37
2019-06-26T04:28:14.065Z,100670.44
2019-06-26T04:30:43.651Z,100676.63
2019-06-26T04:33:13.254Z,100674.19
2019-06-26T04:35:42.856Z,100674.40
2019-06-26T04:38:12.504Z,100677.77
2019-06-26T04:40:42.353Z,100679.09
2019-06-26T04:43:11.932Z,100676.30
2019-06-26T04:45:54.141Z,100681.30
2019-06-26T04:48:12.888Z,100681.65
2019-06-26T04:50:42.583Z,100680.55
2019-06-26T04:53:12.237Z,100684.31
2019-06-26T04:55:41.830Z,100689.47
2019-06-26T04:58:11.492Z,100685.38
2019-06-26T05:00:41.098Z,100689.78
2019-06-26T05:03:10.681Z,100685.27
2019-06-26T05:05:40.373Z,100691.49
2019-06-26T05:08:09.966Z,100690.17
2019-06-26T05:10:39.560Z,100689.96
2019-06-26T05:13:09.405Z,100690.11
2019-06-26T05:15:39.008Z,100692.39
2019-06-26T05:18:08.890Z,100701.75
2019-06-26T05:20:38.498Z,100692.39
2019-06-26T05:23:08.092Z,100696.91
2019-06-26T05:25:37.721Z,100691.34
2019-06-26T05:28:08.467Z,100693.53
2019-06-26T05:30:38.370Z,100689.72
2019-06-26T05:33:09.309Z,100693.36
2019-06-26T05:35:38.912Z,100689.45
2019-06-26T05:38:08.545Z,100691.45
2019-06-26T05:40:38.139Z,100684.44
2019-06-26T05:43:07.731Z,100693.12
2019-06-26T05:45:37.324Z,100688.08
2019-06-26T05:48:06.970Z,100692.70
2019-06-26T05:50:36.688Z,100695.36
2019-06-26T05:53:06.327Z,100691.36
2019-06-26T05:55:36.025Z,100696.30
2019-06-26T05:58:05.698Z,100700.56
2019-06-26T06:00:35.373Z,100692.92
2019-06-26T06:03:04.979Z,100697.06
2019-06-26T06:05:34.638Z,100695.77
2019-06-26T06:08:04.214Z,100700.11
2019-06-26T06:10:33.820Z,100695.99
2019-06-26T06:13:03.488Z,100700.22
2019-06-26T06:15:33.184Z,100696.30
2019-06-26T06:18:02.865Z,100704.38
2019-06-26T06:20:38.347Z,100695.31
2019-06-26T06:23:08.957Z,100703.42
2019-06-26T06:25:38.757Z,100700.67
2019-06-26T06:28:08.355Z,100706.97
2019-06-26T06:30:37.936Z,100706.64
2019-06-26T06:33:07.624Z,100714.19
2019-06-26T06:35:37.236Z,100709.78
2019-06-26T06:38:06.802Z,100709.41
2019-06-26T06:40:36.409Z,100706.16
2019-06-26T06:43:05.993Z,100708.14
2019-06-26T06:45:35.601Z,100718.17
2019-06-26T06:48:05.550Z,100713.98
2019-06-26T06:50:35.158Z,100711.20
2019-06-26T06:53:04.830Z,100713.05
2019-06-26T06:55:35.422Z,100710.88
2019-06-26T06:58:05.166Z,100716.23
2019-06-26T07:00:34.825Z,100718.85
2019-06-26T07:03:04.537Z,100718.53
2019-06-26T07:05:34.195Z,100716.04
2019-06-26T07:08:03.810Z,100716.77
2019-06-26T07:10:33.466Z,100717.75
2019-06-26T07:13:03.041Z,100722.05
2019-06-26T07:15:32.638Z,100723.71
2019-06-26T07:18:02.225Z,100730.08
2019-06-26T07:20:31.892Z,100730.05
2019-06-26T07:23:01.530Z,100730.20
2019-06-26T07:25:31.095Z,100733.27
2019-06-26T07:28:02.037Z,100732.12
2019-06-26T07:30:32.019Z,100735.94
2019-06-26T07:33:01.696Z,100736.14
2019-06-26T07:35:31.377Z,100734.16
2019-06-26T07:38:01.072Z,100733.52
2019-06-26T07:40:30.679Z,100731.15
2019-06-26T07:43:00.303Z,100742.83
2019-06-26T07:45:29.942Z,100735.70
2019-06-26T07:47:59.615Z,100730.40
2019-06-26T07:50:32.342Z,100726.63
2019-06-26T07:53:00.515Z,100733.53
2019-06-26T07:55:30.111Z,100733.08
2019-06-26T07:57:59.701Z,100731.69
2019-06-26T08:00:31.724Z,100725.44
2019-06-26T08:03:04.073Z,100731.98
2019-06-26T08:05:32.075Z,100734.34
2019-06-26T08:08:01.736Z,100725.36
2019-06-26T08:10:31.409Z,100727.59
2019-06-26T08:13:01.096Z,100733.72
2019-06-26T08:15:30.686Z,100746.27
2019-06-26T08:18:01.637Z,100739.13
2019-06-26T08:20:31.669Z,100739.45
2019-06-26T08:23:01.288Z,100736.77
2019-06-26T08:25:30.896Z,100737.71
2019-06-26T08:28:00.477Z,100743.30
2019-06-26T08:30:30.078Z,100737.62
2019-06-26T08:32:59.975Z,100739.67
2019-06-26T08:35:29.655Z,100735.75
2019-06-26T08:38:09.989Z,100731.78
2019-06-26T08:40:32.154Z,100730.55
2019-06-26T08:43:01.835Z,100732.80
2019-06-26T08:45:31.414Z,100737.47
2019-06-26T08:48:16.925Z,100736.50
2019-06-26T08:50:32.275Z,100739.75
2019-06-26T08:53:01.893Z,100743.06
2019-06-26T08:55:32.486Z,100743.36
2019-06-26T08:58:02.160Z,100745.62
2019-06-26T09:00:32.240Z,100748.19
2019-06-26T09:03:01.893Z,100743.02
2019-06-26T09:05:46.761Z,100745.02
2019-06-26T09:08:02.852Z,100749.95
2019-06-26T09:10:32.558Z,100752.00
2019-06-26T09:13:03.251Z,100751.36
2019-06-26T09:15:32.933Z,100754.59
2019-06-26T09:18:02.515Z,100747.84
2019-06-26T09:20:42.689Z,100745.94
2019-06-26T09:23:12.483Z,100754.73
2019-06-26T09:25:42.111Z,100752.81
2019-06-26T09:28:11.713Z,100748.81
2019-06-26T09:30:41.298Z,100757.53
2019-06-26T09:33:10.906Z,100747.41
2019-06-26T09:35:40.539Z,100744.08
2019-06-26T09:38:10.177Z,100755.03
2019-06-26T09:40:39.852Z,100753.47
2019-06-26T09:43:09.436Z,100758.75
2019-06-26T09:45:39.123Z,100751.30
2019-06-26T09:48:08.876Z,100760.16
2019-06-26T09:50:38.546Z,100761.31
2019-06-26T09:53:09.260Z,100753.93
2019-06-26T09:55:38.941Z,100759.19
2019-06-26T09:58:08.543Z,100764.80
2019-06-26T10:00:38.353Z,100765.62
2019-06-26T10:03:07.943Z,100763.47
2019-06-26T10:05:37.612Z,100756.59
2019-06-26T10:08:07.214Z,100762.06
2019-06-26T10:10:38.024Z,100762.24
2019-06-26T10:13:07.625Z,100749.08
2019-06-26T10:15:37.259Z,100752.25
2019-06-26T10:18:06.893Z,100751.12
2019-06-26T10:20:36.593Z,100757.24
2019-06-26T10:23:06.194Z,100760.21
2019-06-26T10:25:35.801Z,100755.86
2019-06-26T10:28:05.552Z,100758.38
2019-06-26T10:30:35.140Z,100764.38
2019-06-26T10:33:04.822Z,100761.08
2019-06-26T10:35:34.414Z,100764.39
2019-06-26T10:38:05.169Z,100759.72
2019-06-26T10:40:34.854Z,100762.17
2019-06-26T10:43:04.549Z,100761.72
2019-06-26T10:45:36.250Z,100753.78
2019-06-26T10:48:05.809Z,100757.11
2019-06-26T10:50:47.540Z,100751.05
2019-06-26T10:53:06.786Z,100751.05
2019-06-26T10:55:36.408Z,100755.62
2019-06-26T10:58:06.080Z,100745.11
2019-06-26T11:00:36.093Z,100749.75
2019-06-26T11:03:05.671Z,100755.09
2019-06-26T11:05:35.255Z,100743.97
2019-06-26T11:08:05.450Z,100754.59
2019-06-26T11:10:35.108Z,100740.99
2019-06-26T11:13:05.079Z,100743.10
2019-06-26T11:15:34.670Z,100746.39
2019-06-26T11:18:04.321Z,100744.78
2019-06-26T11:20:34.004Z,100738.08
2019-06-26T11:23:03.668Z,100738.45
2019-06-26T11:25:33.283Z,100743.45
2019-06-26T11:28:03.000Z,100736.83
2019-06-26T11:30:33.650Z,100738.91
2019-06-26T11:33:03.352Z,100738.23
2019-06-26T11:35:33.010Z,100734.91
2019-06-26T11:38:02.625Z,100741.34
2019-06-26T11:40:33.808Z,100733.52
2019-06-26T11:43:03.494Z,100728.02
2019-06-26T11:45:33.125Z,100728.41
2019-06-26T11:48:02.718Z,100731.28
2019-06-26T11:50:32.388Z,100731.00
2019-06-26T11:53:05.102Z,100734.34
2019-06-26T11:55:34.786Z,100730.53
2019-06-26T11:58:04.493Z,100720.43
2019-06-26T12:00:34.154Z,100720.30
2019-06-26T12:03:05.539Z,100721.37
2019-06-26T12:05:35.136Z,100727.39
2019-06-26T12:08:05.822Z,100721.42
2019-06-26T12:10:35.713Z,100721.61
2019-06-26T12:13:05.405Z,100721.98
2019-06-26T12:15:35.020Z,100714.93
2019-06-26T12:18:05.783Z,100707.52
2019-06-26T12:20:36.931Z,100712.91
2019-06-26T12:23:06.702Z,100714.34
2019-06-26T12:25:36.323Z,100712.42
2019-06-26T12:28:06.360Z,100715.14
2019-06-26T12:30:35.967Z,100706.69
2019-06-26T12:33:05.866Z,100707.55
2019-06-26T12:35:35.566Z,100701.47
2019-06-26T12:38:05.221Z,100696.22
2019-06-26T12:40:37.094Z,100695.99
2019-06-26T12:43:06.788Z,100698.34
2019-06-26T12:45:36.443Z,100694.72
2019-06-26T12:48:06.055Z,100695.86
2019-06-26T12:50:36.314Z,100688.97
2019-06-26T12:53:06.347Z,100689.43
2019-06-26T12:55:36.898Z,100687.64
2019-06-26T12:58:13.865Z,100677.94
2019-06-26T13:00:39.472Z,100676.05
2019-06-26T13:03:09.161Z,100679.36
2019-06-26T13:05:38.827Z,100681.73
2019-06-26T13:08:09.596Z,100678.73
2019-06-26T13:10:49.515Z,100679.31
2019-06-26T13:13:12.680Z,100669.16
2019-06-26T13:15:42.107Z,100677.20
2019-06-26T13:18:11.707Z,100673.71
2019-06-26T13:20:52.154Z,100668.36
2019-06-26T13:23:14.865Z,100671.14
2019-06-26T13:25:44.301Z,100671.20
2019-06-26T13:28:13.804Z,100669.17
2019-06-26T13:30:43.501Z,100664.13
2019-06-26T13:33:13.086Z,100664.59
2019-06-26T13:35:42.747Z,100661.16
2019-06-26T13:38:15.462Z,100659.69
2019-06-26T13:40:47.424Z,100660.95
2019-06-26T13:43:17.417Z,100658.84
2019-06-26T13:45:46.981Z,100660.66
2019-06-26T13:48:16.667Z,100655.30
2019-06-26T13:50:46.459Z,100647.77
2019-06-26T13:53:17.653Z,100658.61
2019-06-26T13:55:47.474Z,100649.17
2019-06-26T13:58:19.310Z,100648.09
2019-06-26T14:00:48.995Z,100650.58
2019-06-26T14:03:20.033Z,100643.64
2019-06-26T14:05:49.717Z,100647.35
2019-06-26T14:08:19.377Z,100645.27
2019-06-26T15:12:28.056Z,101885.80
2019-06-26T17:11:13.357Z,101762.94
2019-06-26T17:13:43.643Z,101760.41
2019-06-26T17:16:14.823Z,101760.69
2019-06-26T17:18:45.788Z,101763.77
2019-06-26T17:21:15.629Z,101766.27
2019-06-26T17:23:45.998Z,101766.19
2019-06-26T17:26:15.805Z,101767.68
2019-06-26T17:28:45.906Z,101770.72
2019-06-26T17:31:15.866Z,101774.03
2019-06-26T17:33:46.105Z,101771.76
2019-06-26T17:36:16.085Z,101777.25
2019-06-26T17:38:46.207Z,101768.18
2019-06-26T17:41:16.418Z,101772.94
2019-06-26T17:43:46.733Z,101770.08
2019-06-26T17:46:17.250Z,101776.86
2019-06-26T17:48:47.195Z,101775.36
2019-06-26T17:51:17.897Z,101769.95
2019-06-26T17:53:47.757Z,101775.69
2019-06-26T17:56:17.789Z,101787.84
2019-06-26T17:58:47.758Z,101786.16
2019-06-26T18:01:17.785Z,101784.63
2019-06-26T18:03:49.017Z,101786.28
2019-06-26T18:06:19.237Z,101782.57
2019-06-26T18:08:49.247Z,101770.91
2019-06-26T18:11:19.637Z,101775.29
2019-06-26T18:13:49.586Z,101775.11
2019-06-26T18:16:19.477Z,101772.89
2019-06-26T18:18:49.865Z,101779.61
2019-06-26T18:21:20.125Z,101773.70
2019-06-26T18:23:49.997Z,101771.45
2019-06-26T18:26:20.108Z,101774.45
2019-06-26T18:28:49.965Z,101775.80
2019-06-26T18:31:20.097Z,101782.85
2019-06-26T18:33:50.006Z,101780.62
2019-06-26T18:36:19.949Z,101776.22
2019-06-26T18:38:49.967Z,101779.58
2019-06-26T18:41:19.896Z,101776.88
2019-06-26T18:43:50.429Z,101780.73
2019-06-26T18:46:20.397Z,101774.47
2019-06-26T18:48:50.936Z,101783.73
2019-06-26T18:51:21.045Z,101778.80
2019-06-26T18:53:53.919Z,101782.48
2019-06-26T18:56:24.447Z,101782.44
2019-06-26T18:58:54.897Z,101780.18
2019-06-26T19:01:25.041Z,101784.19
2019-06-26T19:03:55.385Z,101786.00
2019-06-26T19:06:25.365Z,101786.98
2019-06-26T19:08:55.620Z,101782.89
2019-06-26T19:11:25.465Z,101786.41
2019-06-26T19:13:55.485Z,101786.70
2019-06-26T19:16:25.317Z,101790.73
2019-06-26T19:18:55.490Z,101794.59
2019-06-26T19:21:25.292Z,101791.84
2019-06-26T19:24:09.175Z,101796.20
2019-06-26T19:26:27.265Z,101796.49
2019-06-26T19:28:57.465Z,101797.31
2019-06-26T19:31:27.537Z,101798.11
2019-06-26T19:33:57.362Z,101798.09
2019-06-26T19:36:28.859Z,101795.81
2019-06-26T19:38:59.582Z,101798.80
2019-06-26T19:41:29.957Z,101799.25
2019-06-26T19:44:01.059Z,101803.27
2019-06-26T19:46:31.117Z,101807.95
2019-06-26T19:49:01.305Z,101809.39
2019-06-26T19:51:31.419Z,101815.59
2019-06-26T19:54:01.575Z,101816.37
2019-06-26T19:56:31.704Z,101819.05
2019-06-26T19:59:01.539Z,101826.56
2019-06-26T20:01:31.596Z,101825.16
2019-06-26T20:04:01.499Z,101823.28
2019-06-26T20:06:31.465Z,101822.23
2019-06-26T20:09:01.829Z,101828.41
2019-06-26T20:11:33.127Z,101830.39
2019-06-26T20:14:03.202Z,101825.42
2019-06-26T20:16:33.224Z,101829.26
2019-06-26T20:19:03.115Z,101828.22
2019-06-26T20:21:34.428Z,101832.05
2019-06-26T20:24:05.677Z,101822.57
2019-06-26T20:26:35.506Z,101825.43
2019-06-26T20:29:05.345Z,101834.63
2019-06-26T20:31:35.257Z,101830.88
2019-06-26T20:34:05.297Z,101831.52
2019-06-26T20:36:35.377Z,101834.02
2019-06-26T20:39:05.967Z,101843.23
2019-06-26T20:41:36.055Z,101844.23
2019-06-26T20:44:05.989Z,101840.34
2019-06-26T20:46:36.038Z,101845.18
2019-06-26T20:49:05.987Z,101841.28
2019-06-26T20:51:36.187Z,101845.45
2019-06-26T20:54:06.407Z,101843.56
2019-06-26T20:56:36.507Z,101841.84
2019-06-26T20:59:06.427Z,101841.64
2019-06-26T21:01:36.438Z,101839.75
2019-06-26T21:04:06.595Z,101841.73
2019-06-26T21:06:36.646Z,101843.72
2019-06-26T21:09:07.407Z,101838.13
2019-06-26T21:11:37.655Z,101838.27
2019-06-26T21:14:07.475Z,101838.05
2019-06-26T21:16:37.493Z,101843.57
2019-06-26T21:19:07.537Z,101842.86
2019-06-26T21:21:37.690Z,101848.88
2019-06-26T21:24:07.668Z,101844.97
2019-06-26T21:26:37.586Z,101848.30
2019-06-26T21:29:07.456Z,101843.92
2019-06-26T21:31:37.404Z,101840.66
2019-06-26T21:34:07.354Z,101837.25
2019-06-26T21:36:37.277Z,101830.20
2019-06-26T21:39:07.915Z,101829.48
2019-06-26T21:41:37.994Z,101833.31
2019-06-26T21:44:08.061Z,101831.25
2019-06-26T21:46:37.909Z,101831.05
2019-06-26T21:49:09.026Z,101830.70
2019-06-26T21:51:38.988Z,101830.34
2019-06-26T21:54:09.135Z,101822.06
2019-06-26T21:56:56.783Z,101822.69
2019-06-26T21:59:44.985Z,101830.92
2019-06-26T22:02:32.923Z,101827.65
2019-06-26T22:05:05.248Z,101836.35
2019-06-26T22:07:53.027Z,101825.38
2019-06-26T22:10:24.619Z,101827.86
2019-06-26T22:12:54.667Z,101828.50
2019-06-26T22:15:24.642Z,101831.34
2019-06-26T22:17:54.967Z,101828.45
2019-06-26T22:20:25.083Z,101829.08
2019-06-26T22:22:55.268Z,101827.52
2019-06-26T22:25:25.327Z,101826.09
2019-06-26T22:27:55.321Z,101835.60
2019-06-26T22:30:25.439Z,101825.14
2019-06-26T22:32:55.465Z,101832.48
2019-06-26T22:35:25.606Z,101832.77
2019-06-26T22:37:55.726Z,101832.91
2019-06-26T22:40:25.786Z,101829.03
2019-06-26T22:42:56.118Z,101831.00
2019-06-26T22:45:26.138Z,101831.48
2019-06-26T22:47:55.962Z,101831.27
2019-06-26T22:50:26.107Z,101825.33
2019-06-26T22:52:55.999Z,101827.80
2019-06-26T22:55:26.096Z,101829.27
2019-06-26T22:57:56.023Z,101832.59
2019-06-26T23:00:26.030Z,101833.22
2019-06-26T23:02:56.067Z,101832.38
2019-06-26T23:05:26.261Z,101830.94
2019-06-26T23:07:56.250Z,101832.78
2019-06-26T23:10:26.408Z,101825.36
2019-06-26T23:12:56.567Z,101832.23
2019-06-26T23:15:26.767Z,101826.14
2019-06-26T23:17:57.081Z,101819.55
2019-06-26T23:20:26.901Z,101814.80
2019-06-26T23:22:57.011Z,101820.34
2019-06-26T23:25:27.040Z,101812.91
2019-06-26T23:27:57.187Z,101813.53
2019-06-26T23:30:27.248Z,101816.84
2019-06-26T23:32:57.162Z,101812.09
2019-06-26T23:35:27.718Z,101814.44
2019-06-26T23:37:57.649Z,101810.20
2019-06-26T23:40:27.627Z,101810.32
2019-06-26T23:42:57.448Z,101810.45
2019-06-26T23:45:27.428Z,101810.61
2019-06-26T23:47:57.248Z,101805.83
2019-06-26T23:50:27.208Z,101809.52
2019-06-26T23:52:57.132Z,101805.61
2019-06-26T23:55:27.039Z,101806.23
2019-06-26T23:57:59.429Z,101801.48
